Time;durP1;ratioP1;P1;durP2;ratioP2;P2;SDS_P1;SDS_P2;PMS_P1;PMS_P2;Temp;Humidity;BMP_temperature;BMP_pressure;BME280_temperature;BME280_humidity;BME280_pressure;Samples;Min_cycle;Max_cycle;Signal;HPM_P1;HPM_P2
2024/04/14 00:00:59;;;;;;;5.47;2.60;;;13.60;99.90;;;;;;5423118;26;20472;-75
2024/04/14 00:03:25;;;;;;;8.53;2.90;;;13.50;99.90;;;;;;5454429;26;20451;-74
2024/04/14 00:05:51;;;;;;;5.10;2.90;;;13.50;99.90;;;;;;5454513;26;20786;-75
2024/04/14 00:08:50;;;;;;;5.70;2.37;;;13.50;99.90;;;;;;5453360;26;20499;-75
2024/04/14 00:11:16;;;;;;;7.97;2.70;;;13.40;99.90;;;;;;5412931;26;20467;-73
2024/04/14 00:16:46;;;;;;;5.73;2.90;;;13.30;99.90;;;;;;5386220;26;20323;-75
2024/04/14 00:19:38;;;;;;;8.60;2.43;;;13.40;99.90;;;;;;5453174;26;20466;-73
2024/04/14 00:22:40;;;;;;;2.50;2.00;;;13.40;99.90;;;;;;5403528;26;20513;-73
2024/04/14 00:25:06;;;;;;;2.60;2.37;;;13.40;99.90;;;;;;5448883;26;20533;-76
2024/04/14 00:27:32;;;;;;;2.93;2.63;;;13.30;99.90;;;;;;5453950;26;20455;-75
2024/04/14 00:29:58;;;;;;;2.47;2.27;;;13.40;99.90;;;;;;5452590;26;20462;-73
2024/04/14 00:32:24;;;;;;;4.53;2.50;;;13.40;99.90;;;;;;5421590;26;20817;-75
2024/04/14 00:34:54;;;;;;;3.40;2.40;;;13.40;99.90;;;;;;5454102;26;20448;-73
2024/04/14 00:37:20;;;;;;;2.73;2.53;;;13.40;99.90;;;;;;5454154;26;20219;-72
2024/04/14 00:39:45;;;;;;;3.47;2.70;;;13.40;99.90;;;;;;5452783;26;20511;-73
2024/04/14 00:42:11;;;;;;;4.50;2.57;;;13.40;99.90;;;;;;5453888;26;20247;-75
2024/04/14 00:44:37;;;;;;;4.60;2.47;;;13.30;99.90;;;;;;5421652;26;20229;-73
2024/04/14 00:47:23;;;;;;;7.23;2.60;;;13.30;99.90;;;;;;5453768;26;20212;-75
2024/04/14 00:49:49;;;;;;;4.83;2.13;;;13.30;99.90;;;;;;5451701;26;20540;-75
2024/04/14 00:52:16;;;;;;;2.33;2.20;;;13.30;99.90;;;;;;5453782;26;20791;-73
2024/04/14 00:54:42;;;;;;;4.37;3.40;;;13.30;99.90;;;;;;5453794;26;20425;-74
2024/04/14 00:57:08;;;;;;;3.07;2.87;;;13.20;99.90;;;;;;5453727;26;20503;-73
2024/04/14 00:59:35;;;;;;;2.63;2.40;;;13.10;99.90;;;;;;5452587;26;20250;-76
2024/04/14 01:02:01;;;;;;;3.40;2.50;;;13.10;99.90;;;;;;5421867;26;20436;-75
2024/04/14 01:04:27;;;;;;;5.93;2.77;;;13.00;99.90;;;;;;5453486;26;20859;-73
2024/04/14 01:06:53;;;;;;;5.00;3.07;;;13.00;99.90;;;;;;5421664;26;20233;-74
2024/04/14 01:09:19;;;;;;;4.50;2.30;;;13.00;99.90;;;;;;5451369;26;20255;-71
2024/04/14 01:11:45;;;;;;;7.00;2.87;;;12.90;99.90;;;;;;5421641;26;20229;-73
2024/04/14 01:14:11;;;;;;;10.83;3.17;;;12.80;99.90;;;;;;5421632;26;20527;-74
2024/04/14 01:16:37;;;;;;;4.83;3.00;;;12.80;99.90;;;;;;5453509;26;20230;-73
2024/04/14 01:19:03;;;;;;;3.33;1.70;;;12.80;99.90;;;;;;5452201;26;20416;-76
2024/04/14 01:21:29;;;;;;;3.80;2.30;;;12.70;99.90;;;;;;5453061;26;20508;-74
2024/04/14 01:23:55;;;;;;;6.10;2.70;;;12.70;99.90;;;;;;5453460;26;20507;-75
2024/04/14 01:26:21;;;;;;;4.33;2.53;;;12.60;99.90;;;;;;5453230;26;20453;-73
2024/04/14 01:28:47;;;;;;;4.37;2.63;;;12.50;99.90;;;;;;5451569;26;20499;-73
2024/04/14 01:31:13;;;;;;;4.43;2.80;;;12.50;99.90;;;;;;5452809;26;20560;-75
2024/04/14 01:33:39;;;;;;;2.97;2.40;;;12.40;99.90;;;;;;5452997;26;20321;-75
2024/04/14 01:36:05;;;;;;;5.30;2.40;;;12.30;99.90;;;;;;5452931;26;20529;-74
2024/04/14 01:38:31;;;;;;;2.40;2.20;;;12.30;99.90;;;;;;5452163;26;20272;-75
2024/04/14 01:40:57;;;;;;;2.47;2.17;;;12.20;99.90;;;;;;5452918;26;20461;-75
2024/04/14 01:43:23;;;;;;;5.10;2.73;;;12.20;99.90;;;;;;5453001;26;20219;-75
2024/04/14 01:45:48;;;;;;;3.70;2.07;;;12.20;99.90;;;;;;5452849;26;20446;-75
2024/04/14 01:48:14;;;;;;;12.03;2.40;;;12.20;99.90;;;;;;5451650;26;20216;-74
2024/04/14 01:50:40;;;;;;;3.97;2.30;;;12.10;99.90;;;;;;5451967;26;20718;-74
2024/04/14 01:53:05;;;;;;;3.70;1.83;;;12.10;99.90;;;;;;5452863;26;20228;-76
2024/04/14 01:55:31;;;;;;;8.97;2.20;;;12.00;99.90;;;;;;5452610;26;20335;-75
2024/04/14 01:57:59;;;;;;;3.27;2.20;;;12.00;99.90;;;;;;5453879;26;20216;-74
2024/04/14 02:00:25;;;;;;;10.07;1.90;;;12.00;99.90;;;;;;5456212;26;20256;-72
2024/04/14 02:02:54;;;;;;;2.20;2.00;;;12.00;99.90;;;;;;5456156;26;20457;-75
2024/04/14 02:05:20;;;;;;;3.77;1.90;;;12.00;99.90;;;;;;5455518;26;20514;-73
2024/04/14 02:07:46;;;;;;;5.90;2.03;;;11.90;99.90;;;;;;5423433;26;20464;-74
2024/04/14 02:10:12;;;;;;;2.80;1.80;;;11.80;99.90;;;;;;5455399;26;20446;-72
2024/04/14 02:12:37;;;;;;;9.60;2.00;;;11.80;99.90;;;;;;5424416;26;20739;-75
2024/04/14 02:15:03;;;;;;;8.03;2.07;;;11.80;99.90;;;;;;5424241;26;20280;-72
2024/04/14 02:17:29;;;;;;;8.80;1.90;;;11.70;92.60;;;;;;5424259;26;20225;-75
2024/04/14 02:19:55;;;;;;;4.30;1.67;;;11.70;92.60;;;;;;5454822;26;20482;-75
2024/04/14 02:22:21;;;;;;;2.03;1.93;;;11.70;92.60;;;;;;5455845;26;20214;-75
2024/04/14 02:24:46;;;;;;;5.07;2.13;;;11.70;92.60;;;;;;5455004;26;20227;-74
2024/04/14 02:27:12;;;;;;;3.00;2.00;;;11.70;69.50;;;;;;5456034;26;20220;-72
2024/04/14 02:29:38;;;;;;;9.73;1.87;;;11.60;62.20;;;;;;5454730;26;20228;-75
2024/04/14 02:32:04;;;;;;;6.03;1.73;;;11.50;42.60;;;;;;5455805;26;20263;-73
2024/04/14 02:34:29;;;;;;;1.50;1.40;;;11.60;32.70;;;;;;5455842;26;20219;-72
2024/04/14 02:36:55;;;;;;;5.83;1.40;;;11.40;22.40;;;;;;5455650;26;21036;-75
2024/04/14 02:39:22;;;;;;;5.00;1.70;;;11.40;8.60;;;;;;5422364;26;20249;-74
2024/04/14 02:41:47;;;;;;;2.47;2.10;;;11.40;2.00;;;;;;5455144;26;20216;-74
2024/04/14 02:44:13;;;;;;;3.57;1.77;;;11.30;1.00;;;;;;5423696;26;20561;-75
2024/04/14 02:46:39;;;;;;;3.77;1.60;;;11.20;1.00;;;;;;5455772;26;20304;-75
2024/04/14 02:49:05;;;;;;;2.03;1.73;;;11.20;1.00;;;;;;5454430;26;20265;-74
2024/04/14 02:51:31;;;;;;;1.90;1.63;;;11.10;1.00;;;;;;5455475;26;20219;-74
2024/04/14 02:53:56;;;;;;;7.20;1.90;;;11.00;1.00;;;;;;5455622;26;20476;-72
2024/04/14 02:56:22;;;;;;;1.40;1.30;;;10.90;1.00;;;;;;5423538;26;20283;-73
2024/04/14 02:58:48;;;;;;;4.30;2.10;;;10.80;1.00;;;;;;5421936;26;20222;-75
2024/04/14 03:01:16;;;;;;;2.50;1.47;;;10.70;1.00;;;;;;5455107;26;20687;-72
2024/04/14 03:03:44;;;;;;;3.10;1.40;;;10.70;1.00;;;;;;5455270;26;20332;-75
2024/04/14 03:06:10;;;;;;;5.67;1.43;;;10.70;1.00;;;;;;5455154;26;20876;-73
2024/04/14 03:08:36;;;;;;;2.97;1.60;;;10.60;1.00;;;;;;5454156;26;21043;-73
2024/04/14 03:11:02;;;;;;;2.50;1.23;;;10.50;1.00;;;;;;5423385;26;20446;-75
2024/04/14 03:13:29;;;;;;;3.40;1.50;;;10.50;1.00;;;;;;5455126;26;20220;-75
2024/04/14 03:15:55;;;;;;;3.80;1.43;;;10.40;1.00;;;;;;5455288;26;20423;-75
2024/04/14 03:18:20;;;;;;;5.23;1.30;;;10.30;1.00;;;;;;5452906;26;20503;-74
2024/04/14 03:20:56;;;;;;;4.40;1.47;;;10.30;1.00;;;;;;5455016;26;20472;-74
2024/04/14 03:23:22;;;;;;;3.93;1.97;;;10.20;1.00;;;;;;5455211;26;20564;-73
2024/04/14 03:25:48;;;;;;;2.70;1.37;;;10.10;1.00;;;;;;5423313;26;20431;-74
2024/04/14 03:28:14;;;;;;;4.70;1.40;;;10.10;1.00;;;;;;5422187;26;20469;-73
2024/04/14 03:30:39;;;;;;;4.73;1.33;;;10.10;1.00;;;;;;5454897;26;20675;-75
2024/04/14 03:33:05;;;;;;;2.30;1.70;;;10.00;1.00;;;;;;5454898;26;20559;-74
2024/04/14 03:35:31;;;;;;;7.27;1.70;;;10.00;1.00;;;;;;5454911;26;20271;-75
2024/04/14 03:37:57;;;;;;;4.90;1.60;;;9.90;1.00;;;;;;5452947;26;20459;-74
2024/04/14 03:40:23;;;;;;;2.33;1.53;;;9.90;1.00;;;;;;5454601;26;20271;-74
2024/04/14 03:42:49;;;;;;;3.33;1.20;;;9.90;1.00;;;;;;5454739;26;20222;-74
2024/04/14 03:45:18;;;;;;;2.13;1.37;;;9.80;1.00;;;;;;5454921;26;20453;-73
2024/04/14 03:47:44;;;;;;;3.47;1.57;;;9.80;1.00;;;;;;5454481;26;20776;-71
2024/04/14 03:50:09;;;;;;;3.47;1.83;;;9.70;1.00;;;;;;5453781;26;20517;-74
2024/04/14 03:52:35;;;;;;;1.97;1.40;;;9.70;1.00;;;;;;5454799;26;20252;-74
2024/04/14 03:55:01;;;;;;;7.67;1.50;;;9.60;1.00;;;;;;5453505;26;20698;-71
2024/04/14 03:57:27;;;;;;;1.97;1.67;;;9.60;1.00;;;;;;5454593;26;20321;-74
2024/04/14 03:59:52;;;;;;;3.10;1.60;;;9.60;1.00;;;;;;5453654;26;20460;-73
2024/04/14 04:02:18;;;;;;;1.73;1.63;;;9.60;1.00;;;;;;5454510;26;20251;-73
2024/04/14 04:04:44;;;;;;;1.97;1.50;;;9.50;1.00;;;;;;5422577;26;20274;-73
2024/04/14 04:07:09;;;;;;;2.77;1.80;;;9.60;1.00;;;;;;5454598;26;20336;-75
2024/04/14 04:09:35;;;;;;;1.53;1.30;;;9.50;1.00;;;;;;5453425;26;20628;-74
2024/04/14 04:12:01;;;;;;;2.97;1.73;;;9.50;1.00;;;;;;5454559;26;20263;-75
2024/04/14 04:14:26;;;;;;;4.17;1.90;;;9.50;1.00;;;;;;5453333;26;20269;-74
2024/04/14 04:16:52;;;;;;;8.30;1.40;;;9.50;1.00;;;;;;5454381;26;20270;-74
2024/04/14 04:19:18;;;;;;;1.90;1.70;;;9.40;1.00;;;;;;5420823;26;20337;-75
2024/04/14 04:21:44;;;;;;;2.50;1.60;;;9.40;1.00;;;;;;5454068;26;20220;-73
2024/04/14 04:24:09;;;;;;;5.00;1.77;;;9.30;1.00;;;;;;5454374;26;20942;-73
2024/04/14 04:26:35;;;;;;;2.70;1.20;;;9.40;1.00;;;;;;5454639;26;20251;-75
2024/04/14 04:29:01;;;;;;;4.43;1.80;;;9.30;1.00;;;;;;5452947;26;20297;-75
2024/04/14 04:31:26;;;;;;;8.37;2.90;;;9.20;1.00;;;;;;5454022;26;20330;-75
2024/04/14 04:33:52;;;;;;;3.20;2.03;;;9.30;1.00;;;;;;5453691;26;20265;-72
2024/04/14 04:36:18;;;;;;;3.27;1.77;;;9.20;1.00;;;;;;5454176;26;20702;-74
2024/04/14 04:38:44;;;;;;;6.43;2.17;;;9.30;1.00;;;;;;5421131;26;20269;-74
2024/04/14 04:41:10;;;;;;;5.13;2.13;;;9.20;1.00;;;;;;5453926;26;20249;-75
2024/04/14 04:43:38;;;;;;;5.30;1.90;;;9.20;1.00;;;;;;5453924;26;20536;-71
2024/04/14 04:46:03;;;;;;;3.30;1.90;;;9.10;1.00;;;;;;5453994;26;20485;-73
2024/04/14 04:48:29;;;;;;;2.00;1.80;;;9.10;1.00;;;;;;5452922;26;20419;-75
2024/04/14 04:50:55;;;;;;;5.67;1.77;;;9.10;1.00;;;;;;5453628;26;20305;-74
2024/04/14 04:53:21;;;;;;;1.67;1.57;;;9.10;1.00;;;;;;5421090;26;20588;-75
2024/04/14 04:55:47;;;;;;;1.50;1.40;;;9.10;1.00;;;;;;5453779;26;20481;-75
2024/04/14 04:58:14;;;;;;;3.23;2.00;;;9.10;1.00;;;;;;5420828;26;20430;-74
2024/04/14 05:00:50;;;;;;;3.37;1.63;;;9.10;1.00;;;;;;5453617;26;20455;-73
2024/04/14 05:03:16;;;;;;;5.50;1.87;;;9.20;1.00;;;;;;5421984;26;20506;-73
2024/04/14 05:05:41;;;;;;;4.30;1.90;;;9.10;1.00;;;;;;5453592;26;20809;-74
2024/04/14 05:08:07;;;;;;;2.13;1.43;;;9.10;1.00;;;;;;5452528;26;20220;-73
2024/04/14 05:10:33;;;;;;;4.03;1.73;;;9.10;1.00;;;;;;5452658;26;20275;-74
2024/04/14 05:12:58;;;;;;;4.63;2.23;;;9.10;1.00;;;;;;5453340;26;20212;-73
2024/04/14 05:15:24;;;;;;;3.90;1.67;;;9.00;1.00;;;;;;5453351;26;20330;-75
2024/04/14 05:17:50;;;;;;;3.67;2.27;;;9.00;1.00;;;;;;5452576;26;20223;-76
2024/04/14 05:20:15;;;;;;;2.60;1.90;;;9.00;1.00;;;;;;5453332;26;20260;-75
2024/04/14 05:22:41;;;;;;;1.53;1.40;;;9.00;1.00;;;;;;5421754;26;20261;-72
2024/04/14 05:25:07;;;;;;;4.30;1.50;;;9.00;1.00;;;;;;5453311;26;20288;-75
2024/04/14 05:27:32;;;;;;;1.80;1.70;;;9.00;1.00;;;;;;5421384;26;20223;-73
2024/04/14 05:29:58;;;;;;;8.20;1.40;;;9.00;1.00;;;;;;5451297;26;20230;-73
2024/04/14 05:32:24;;;;;;;3.43;1.53;;;9.10;1.00;;;;;;5453145;26;20217;-75
2024/04/14 05:34:50;;;;;;;5.20;1.90;;;9.10;1.00;;;;;;5453024;26;20216;-75
2024/04/14 05:37:16;;;;;;;2.90;1.57;;;9.10;1.00;;;;;;5453153;26;20659;-72
2024/04/14 05:39:41;;;;;;;7.80;1.37;;;9.00;1.00;;;;;;5452002;26;20454;-75
2024/04/14 05:42:07;;;;;;;4.47;1.93;;;9.10;1.00;;;;;;5421163;26;20257;-74
2024/04/14 05:44:34;;;;;;;2.60;2.07;;;9.00;1.00;;;;;;5453097;26;20217;-74
2024/04/14 05:46:59;;;;;;;10.20;1.73;;;9.10;1.00;;;;;;5452589;26;20312;-73
2024/04/14 05:49:26;;;;;;;3.53;1.50;;;9.10;1.00;;;;;;5419272;26;20875;-75
2024/04/14 05:51:51;;;;;;;5.63;1.80;;;9.10;1.00;;;;;;5452871;26;20700;-76
2024/04/14 05:54:17;;;;;;;1.97;1.70;;;9.10;1.00;;;;;;5420660;26;20477;-71
2024/04/14 05:56:43;;;;;;;14.97;2.23;;;9.10;1.00;;;;;;5420924;26;20255;-74
2024/04/14 05:59:09;;;;;;;5.70;1.53;;;9.20;1.00;;;;;;5420092;26;20243;-72
2024/04/14 06:01:35;;;;;;;3.53;1.77;;;9.20;1.00;;;;;;5420721;26;20231;-75
2024/04/14 06:04:01;;;;;;;11.90;1.70;;;9.20;1.00;;;;;;5452511;26;20568;-74
2024/04/14 06:06:26;;;;;;;6.90;1.87;;;9.10;1.00;;;;;;5452263;26;20270;-74
2024/04/14 06:08:52;;;;;;;7.03;1.50;;;9.20;1.00;;;;;;5451056;26;20216;-72
2024/04/14 06:11:18;;;;;;;4.53;1.90;;;9.30;1.00;;;;;;5452583;26;20273;-72
2024/04/14 06:13:44;;;;;;;8.53;2.20;;;9.40;1.00;;;;;;5452363;26;20449;-74
2024/04/14 06:16:10;;;;;;;7.27;2.20;;;9.30;1.00;;;;;;5420555;26;20433;-74
2024/04/14 06:18:36;;;;;;;5.90;1.80;;;9.30;1.00;;;;;;5451794;26;20696;-72
2024/04/14 06:21:03;;;;;;;3.27;1.50;;;9.40;1.00;;;;;;5420483;26;20457;-73
2024/04/14 06:23:29;;;;;;;3.83;1.73;;;9.50;1.00;;;;;;5452254;26;20293;-72
2024/04/14 06:25:55;;;;;;;4.60;1.70;;;9.70;1.00;;;;;;5451549;26;20424;-72
2024/04/14 06:28:20;;;;;;;9.53;2.47;;;9.70;1.00;;;;;;5451568;26;20259;-71
2024/04/14 06:30:46;;;;;;;1.60;1.50;;;9.70;1.00;;;;;;5452043;26;20439;-72
2024/04/14 06:33:12;;;;;;;2.40;1.87;;;9.60;1.00;;;;;;5452153;26;20324;-71
2024/04/14 06:35:38;;;;;;;1.67;1.57;;;9.70;1.00;;;;;;5451947;26;20266;-73
2024/04/14 06:38:04;;;;;;;6.43;1.80;;;9.70;1.00;;;;;;5451254;26;20258;-74
2024/04/14 06:40:29;;;;;;;5.37;1.80;;;9.70;1.00;;;;;;5420292;26;20548;-75
2024/04/14 06:42:55;;;;;;;5.60;1.80;;;9.80;1.00;;;;;;5451961;26;20469;-74
2024/04/14 06:45:21;;;;;;;1.67;1.57;;;10.00;1.00;;;;;;5455356;26;20554;-74
2024/04/14 06:47:46;;;;;;;11.00;2.13;;;10.10;1.00;;;;;;5455112;26;20220;-75
2024/04/14 06:50:13;;;;;;;10.33;1.60;;;10.10;1.00;;;;;;5455151;26;20245;-74
2024/04/14 06:52:39;;;;;;;8.53;1.50;;;10.10;1.00;;;;;;5455689;26;20213;-74
2024/04/14 06:55:05;;;;;;;5.90;2.00;;;10.20;1.00;;;;;;5423639;26;20464;-74
2024/04/14 06:57:31;;;;;;;1.70;1.33;;;10.30;1.00;;;;;;5455452;26;20227;-71
2024/04/14 06:59:56;;;;;;;2.10;1.60;;;10.20;1.00;;;;;;5423287;26;20283;-75
2024/04/14 07:02:22;;;;;;;4.90;2.10;;;10.10;1.00;;;;;;5454363;26;20677;-74
2024/04/14 07:04:48;;;;;;;6.10;1.80;;;10.00;1.00;;;;;;5455304;26;20286;-74
2024/04/14 07:07:13;;;;;;;2.90;1.40;;;9.90;1.00;;;;;;5455487;26;20213;-73
2024/04/14 07:09:39;;;;;;;9.43;1.70;;;10.10;1.00;;;;;;5422485;26;20647;-72
2024/04/14 07:12:05;;;;;;;9.70;1.40;;;10.20;1.00;;;;;;5455324;26;20336;-75
2024/04/14 07:14:31;;;;;;;12.27;1.80;;;10.20;1.00;;;;;;5455334;26;20442;-70
2024/04/14 07:16:57;;;;;;;1.57;1.40;;;10.30;1.00;;;;;;5455093;26;20213;-72
2024/04/14 07:19:22;;;;;;;2.30;1.73;;;10.30;1.00;;;;;;5453602;26;20233;-73
2024/04/14 07:21:48;;;;;;;3.00;1.50;;;10.50;1.00;;;;;;5454904;26;20805;-71
2024/04/14 07:24:14;;;;;;;2.43;1.70;;;10.70;1.00;;;;;;5454854;26;20725;-73
2024/04/14 07:26:39;;;;;;;3.23;1.70;;;10.70;1.00;;;;;;5455356;26;20551;-73
2024/04/14 07:29:05;;;;;;;3.00;1.20;;;10.80;1.00;;;;;;5454605;26;20258;-73
2024/04/14 07:31:31;;;;;;;1.83;1.57;;;10.80;1.00;;;;;;5454933;26;20333;-73
2024/04/14 07:34:03;;;;;;;6.83;1.50;;;10.90;1.00;;;;;;5423156;26;20286;-71
2024/04/14 07:36:29;;;;;;;2.67;1.80;;;10.90;1.00;;;;;;5422968;26;20273;-72
2024/04/14 07:38:54;;;;;;;5.90;2.37;;;10.70;1.00;;;;;;5452962;26;20495;-73
2024/04/14 07:41:20;;;;;;;1.53;1.43;;;10.70;1.00;;;;;;5454906;26;20453;-74
2024/04/14 07:43:46;;;;;;;1.30;1.20;;;10.80;1.00;;;;;;5423085;26;20554;-73
2024/04/14 07:46:12;;;;;;;7.60;1.90;;;10.90;1.00;;;;;;5455063;26;20543;-73
2024/04/14 07:48:38;;;;;;;2.13;1.90;;;10.90;1.00;;;;;;5454108;26;20476;-73
2024/04/14 07:51:04;;;;;;;4.67;1.43;;;11.10;1.00;;;;;;5454966;26;21253;-73
2024/04/14 07:53:30;;;;;;;3.17;1.33;;;11.10;1.00;;;;;;5454575;26;20230;-74
2024/04/14 07:55:56;;;;;;;7.30;1.93;;;11.20;1.00;;;;;;5452802;26;20637;-74
2024/04/14 07:58:22;;;;;;;9.60;1.50;;;11.40;1.00;;;;;;5453286;26;20687;-74
2024/04/14 08:00:48;;;;;;;3.07;1.60;;;11.50;1.00;;;;;;5454352;26;20227;-74
2024/04/14 08:03:14;;;;;;;8.93;1.20;;;11.50;1.00;;;;;;5454688;26;20423;-73
2024/04/14 08:05:40;;;;;;;2.43;1.30;;;11.30;1.00;;;;;;5454335;26;20265;-73
2024/04/14 08:08:08;;;;;;;2.37;1.30;;;11.40;1.00;;;;;;5453686;26;20425;-74
2024/04/14 08:10:34;;;;;;;2.07;1.80;;;11.30;1.00;;;;;;5454448;26;21049;-74
2024/04/14 08:13:00;;;;;;;1.97;1.13;;;11.40;1.00;;;;;;5454334;26;20444;-73
2024/04/14 08:15:25;;;;;;;3.27;1.30;;;11.50;1.00;;;;;;5453391;26;20478;-75
2024/04/14 08:17:51;;;;;;;12.77;1.47;;;11.60;1.00;;;;;;5453722;26;20221;-74
2024/04/14 08:20:17;;;;;;;5.53;1.37;;;11.60;1.00;;;;;;5454141;26;20291;-73
2024/04/14 08:22:43;;;;;;;5.13;1.83;;;11.70;1.00;;;;;;5454232;26;20701;-74
2024/04/14 08:25:08;;;;;;;4.53;1.60;;;11.60;1.00;;;;;;5454510;26;20216;-75
2024/04/14 08:27:34;;;;;;;1.33;1.23;;;11.60;1.00;;;;;;5453783;26;20220;-73
2024/04/14 08:30:00;;;;;;;2.27;1.63;;;11.70;1.00;;;;;;5453394;26;20276;-74
2024/04/14 08:32:25;;;;;;;4.53;1.30;;;11.70;1.00;;;;;;5454169;26;20219;-74
2024/04/14 08:34:51;;;;;;;2.80;1.43;;;11.80;1.00;;;;;;5452736;26;20593;-75
2024/04/14 08:37:17;;;;;;;1.87;1.43;;;11.80;1.00;;;;;;5393010;26;20220;-74
2024/04/14 08:39:44;;;;;;;2.33;1.20;;;11.90;1.00;;;;;;5453461;26;20244;-73
2024/04/14 08:42:10;;;;;;;3.03;1.20;;;12.00;1.00;;;;;;5453976;26;20803;-74
2024/04/14 08:44:38;;;;;;;1.97;1.10;;;12.10;1.00;;;;;;5453925;26;20958;-73
2024/04/14 08:47:04;;;;;;;5.73;1.10;;;12.10;1.00;;;;;;5453750;26;20520;-74
2024/04/14 08:49:31;;;;;;;1.50;1.30;;;12.00;99.90;;;;;;5452935;26;20471;-72
2024/04/14 08:51:58;;;;;;;1.60;1.40;;;12.00;99.90;;;;;;5453308;26;20430;-74
2024/04/14 08:54:25;;;;;;;1.40;1.13;;;12.20;99.90;;;;;;5453885;26;20442;-74
2024/04/14 08:57:00;;;;;;;1.20;1.00;;;12.50;99.90;;;;;;5453604;26;20840;-73
2024/04/14 08:59:26;;;;;;;4.70;1.10;;;12.50;99.90;;;;;;5453006;26;20460;-74
2024/04/14 09:01:52;;;;;;;4.23;1.10;;;12.40;99.90;;;;;;5453822;26;20495;-74
2024/04/14 09:04:18;;;;;;;1.53;1.10;;;12.30;99.90;;;;;;5453679;26;20329;-74
2024/04/14 09:06:46;;;;;;;1.13;1.03;;;12.60;99.90;;;;;;5453274;26;20860;-73
2024/04/14 09:09:13;;;;;;;1.23;1.10;;;12.80;99.90;;;;;;5452783;26;20509;-73
2024/04/14 09:11:59;;;;;;;7.50;1.93;;;12.70;99.90;;;;;;5452416;26;20439;-74
2024/04/14 09:14:25;;;;;;;5.83;1.30;;;12.80;99.90;;;;;;5453257;26;20509;-74
2024/04/14 09:16:51;;;;;;;2.40;1.60;;;12.70;99.90;;;;;;5453335;26;20423;-74
2024/04/14 09:19:18;;;;;;;9.13;1.20;;;12.90;99.90;;;;;;5420814;26;20245;-75
2024/04/14 09:22:05;;;;;;;;;;;;;;;;;;;;;
2024/04/14 09:24:34;;;;;;;7.47;1.73;;;13.60;99.90;;;;;;5453535;26;20500;-74
2024/04/14 09:27:04;;;;;;;1.47;1.37;;;13.70;99.90;;;;;;5453061;26;20441;-75
2024/04/14 09:29:29;;;;;;;2.27;1.00;;;13.80;99.90;;;;;;5452359;26;20573;-75
2024/04/14 09:31:55;;;;;;;1.20;1.10;;;13.60;99.90;;;;;;5452571;26;20457;-73
2024/04/14 09:34:23;;;;;;;2.13;1.17;;;13.40;99.90;;;;;;5421487;26;20297;-74
2024/04/14 09:36:49;;;;;;;2.50;1.10;;;13.30;99.90;;;;;;5452959;26;20227;-72
2024/04/14 09:39:18;;;;;;;1.60;1.10;;;13.00;99.90;;;;;;5452409;26;20916;-74
2024/04/14 09:41:44;;;;;;;1.30;1.20;;;13.10;99.90;;;;;;5453012;26;20446;-73
2024/04/14 09:44:11;;;;;;;2.30;1.10;;;13.50;99.90;;;;;;5452949;26;20437;-74
2024/04/14 09:46:37;;;;;;;1.10;1.00;;;13.50;99.90;;;;;;5452979;26;20441;-71
2024/04/14 09:49:07;;;;;;;7.80;1.40;;;13.50;99.90;;;;;;5419545;26;20452;-75
2024/04/14 09:51:35;;;;;;;1.40;1.20;;;13.20;99.90;;;;;;5452620;26;20274;-74
2024/04/14 09:54:02;;;;;;;2.80;1.20;;;12.80;99.90;;;;;;5421082;26;20499;-74
2024/04/14 09:56:30;;;;;;;5.63;1.70;;;12.80;99.90;;;;;;5420917;26;20547;-73
2024/04/14 09:58:56;;;;;;;3.57;1.10;;;13.10;99.90;;;;;;5451984;26;20431;-73
2024/04/14 10:01:28;;;;;;;3.13;1.30;;;13.70;99.90;;;;;;5452689;26;20494;-74
2024/04/14 10:03:57;;;;;;;1.20;1.10;;;14.20;99.90;;;;;;5421054;26;20453;-73
2024/04/14 10:06:26;;;;;;;3.07;1.40;;;14.10;99.90;;;;;;5451696;26;20483;-73
2024/04/14 10:09:03;;;;;;;1.43;1.00;;;14.20;99.90;;;;;;5451677;26;20980;-73
2024/04/14 10:11:32;;;;;;;2.30;2.10;;;14.70;99.90;;;;;;5420539;26;20448;-73
2024/04/14 10:14:00;;;;;;;1.73;1.10;;;15.10;99.90;;;;;;5452498;26;20441;-73
2024/04/14 10:16:26;;;;;;;1.57;1.30;;;15.00;99.90;;;;;;5420540;26;20568;-73
2024/04/14 10:18:52;;;;;;;2.23;1.63;;;14.90;99.90;;;;;;5453722;26;20450;-75
2024/04/14 10:21:21;;;;;;;6.80;3.40;;;15.10;99.90;;;;;;5424334;26;20226;-74
2024/04/14 10:23:56;;;;;;;6.93;1.60;;;15.10;99.90;;;;;;5455632;26;20451;-79
2024/04/14 10:27:39;;;;;;;10.17;3.87;;;15.50;99.90;;;;;;5455061;26;20438;-75
2024/04/14 10:30:05;;;;;;;28.63;15.00;;;15.40;99.90;;;;;;5343309;26;20553;-79
2024/04/14 10:32:31;;;;;;;1.83;1.73;;;15.70;99.90;;;;;;5346622;26;20509;-80
2024/04/14 10:34:57;;;;;;;3.67;3.07;;;14.80;99.90;;;;;;5406175;26;20459;-73
2024/04/14 10:37:27;;;;;;;2.70;1.67;;;14.30;99.90;;;;;;5455891;26;20692;-73
2024/04/14 10:39:54;;;;;;;1.30;1.20;;;14.20;99.90;;;;;;5454910;26;20256;-73
2024/04/14 10:42:23;;;;;;;2.90;1.30;;;14.20;99.90;;;;;;5455736;26;20517;-74
2024/04/14 10:44:49;;;;;;;3.17;1.30;;;14.70;99.90;;;;;;5454965;26;20454;-74
2024/04/14 10:47:19;;;;;;;5.40;1.80;;;14.90;99.90;;;;;;5455321;26;20453;-72
2024/04/14 10:49:48;;;;;;;2.97;1.30;;;14.70;99.90;;;;;;5455169;26;20510;-74
2024/04/14 10:52:18;;;;;;;1.00;0.90;;;14.60;99.90;;;;;;5455718;26;20500;-74
2024/04/14 10:54:44;;;;;;;5.73;5.00;;;15.40;99.90;;;;;;5455515;26;20995;-74
2024/04/14 10:57:11;;;;;;;2.47;2.13;;;16.20;99.90;;;;;;5455516;26;20449;-74
2024/04/14 10:59:42;;;;;;;30.53;18.03;;;16.20;99.90;;;;;;5454643;26;20466;-74
2024/04/14 11:02:08;;;;;;;3.37;1.10;;;16.50;99.90;;;;;;5454265;26;20444;-75
2024/04/14 11:04:35;;;;;;;7.27;1.10;;;16.40;99.90;;;;;;5455460;26;21030;-74
2024/04/14 11:07:02;;;;;;;4.80;1.77;;;16.00;99.90;;;;;;5455298;26;20223;-74
2024/04/14 11:09:29;;;;;;;7.23;1.20;;;16.10;99.90;;;;;;5454421;26;20457;-75
2024/04/14 11:11:56;;;;;;;1.40;1.20;;;15.90;99.90;;;;;;5455378;26;20453;-74
2024/04/14 11:14:33;;;;;;;1.20;0.80;;;16.60;99.90;;;;;;5455243;26;20443;-75
2024/04/14 11:17:07;;;;;;;2.30;0.90;;;17.20;99.90;;;;;;5454656;26;21147;-75
2024/04/14 11:19:33;;;;;;;2.03;1.20;;;17.80;99.90;;;;;;5421910;26;20845;-72
2024/04/14 11:22:02;;;;;;;11.47;1.80;;;17.70;99.90;;;;;;5455146;26;20438;-74
2024/04/14 11:24:53;;;;;;;2.30;1.00;;;16.90;99.90;;;;;;5455147;26;20265;-74
2024/04/14 11:27:22;;;;;;;2.20;1.30;;;16.40;99.90;;;;;;5409405;26;20589;-75
2024/04/14 11:29:48;;;;;;;3.63;0.87;;;16.10;99.90;;;;;;5454487;26;20449;-74
2024/04/14 11:35:05;;;;;;;4.83;1.33;;;15.40;99.90;;;;;;5454028;26;20835;-74
2024/04/14 11:37:31;;;;;;;5.13;1.53;;;14.70;99.90;;;;;;5454625;26;20562;-73
2024/04/14 11:40:00;;;;;;;5.47;1.17;;;14.30;99.90;;;;;;5454271;26;20569;-74
2024/04/14 11:42:39;;;;;;;4.73;1.30;;;14.30;99.90;;;;;;5454652;26;20496;-74
2024/04/14 11:45:06;;;;;;;1.50;1.20;;;14.70;99.90;;;;;;5454830;26;20813;-75
2024/04/14 11:47:32;;;;;;;1.67;1.10;;;14.80;99.90;;;;;;5454625;26;20451;-74
2024/04/14 11:49:58;;;;;;;5.60;1.40;;;14.10;99.90;;;;;;5422174;26;20592;-73
2024/04/14 11:52:33;;;;;;;1.63;1.43;;;14.40;99.90;;;;;;5454495;26;20218;-74
2024/04/14 11:55:08;;;;;;;1.47;1.10;;;14.80;99.90;;;;;;5421836;26;20253;-74
2024/04/14 11:57:37;;;;;;;1.67;1.10;;;14.70;99.90;;;;;;5454767;26;20515;-75
2024/04/14 12:00:03;;;;;;;1.57;1.10;;;14.40;99.90;;;;;;5422326;26;20526;-74
2024/04/14 12:02:29;;;;;;;3.47;1.47;;;13.90;99.90;;;;;;5422612;26;20451;-75
2024/04/14 12:04:55;;;;;;;1.50;1.20;;;14.10;99.90;;;;;;5454389;26;20988;-72
2024/04/14 12:07:21;;;;;;;1.93;0.90;;;13.70;99.90;;;;;;5422782;26;20460;-74
2024/04/14 12:09:47;;;;;;;3.10;1.20;;;13.60;99.90;;;;;;5421947;26;20622;-74
2024/04/14 12:12:16;;;;;;;4.50;1.23;;;13.60;99.90;;;;;;5454422;26;20442;-74
2024/04/14 12:14:44;;;;;;;9.80;1.20;;;13.70;99.90;;;;;;5453706;26;20441;-74
2024/04/14 12:17:12;;;;;;;1.57;1.33;;;13.50;99.90;;;;;;5454708;26;20504;-75
2024/04/14 12:19:38;;;;;;;1.40;1.30;;;13.20;99.90;;;;;;5421733;26;20522;-74
2024/04/14 12:22:04;;;;;;;3.80;1.00;;;13.10;99.90;;;;;;5454172;26;20507;-74
2024/04/14 12:24:29;;;;;;;1.53;1.40;;;13.10;99.90;;;;;;5454155;26;20231;-75
2024/04/14 12:26:56;;;;;;;4.30;1.07;;;13.20;99.90;;;;;;5422407;26;20312;-74
2024/04/14 12:29:22;;;;;;;3.73;1.20;;;13.60;99.90;;;;;;5453378;26;20232;-74
2024/04/14 12:31:50;;;;;;;6.43;0.80;;;13.80;99.90;;;;;;5454214;26;20820;-74
2024/04/14 12:34:19;;;;;;;1.73;0.90;;;14.40;99.90;;;;;;5452916;26;20856;-75
2024/04/14 12:36:45;;;;;;;3.67;0.70;;;15.10;99.90;;;;;;5454291;26;20444;-74
2024/04/14 12:39:15;;;;;;;4.10;1.10;;;15.60;99.90;;;;;;5453277;26;21050;-73
2024/04/14 12:41:41;;;;;;;2.50;0.83;;;16.10;99.90;;;;;;5453055;26;20498;-73
2024/04/14 12:44:07;;;;;;;6.80;1.60;;;15.90;99.90;;;;;;5453888;26;20442;-74
2024/04/14 12:46:32;;;;;;;1.30;1.20;;;15.80;99.90;;;;;;5454026;26;21001;-74
2024/04/14 12:48:58;;;;;;;1.43;1.30;;;15.40;99.90;;;;;;5452887;26;20214;-74
2024/04/14 12:51:24;;;;;;;4.40;1.13;;;15.20;99.90;;;;;;5453924;26;20261;-74
2024/04/14 12:57:23;;;;;;;3.87;0.90;;;16.20;99.90;;;;;;5344311;26;20493;-74
2024/04/14 13:03:11;;;;;;;1.87;0.87;;;19.40;99.90;;;;;;5344201;26;20525;-74
2024/04/14 13:05:37;;;;;;;0.90;0.60;;;20.50;99.90;;;;;;5343970;26;20509;-75
2024/04/14 13:08:03;;;;;;;1.23;0.80;;;20.80;99.90;;;;;;5403353;26;20441;-75